Terminal Aerodrome Forecast
Issued by NWS

Home | Current Version | Previous Version | Graphics & Text | Print | Product List | Glossary On
Versions: 1 2 3 4 5 6 7 8 9 10 11 12 13 14 15 16 17 18 19 20
000
FTUS43 KUNR 262320
TAFGCC
TAF
KGCC 262320Z 2700/2724 14008KT P6SM BKN080
      TEMPO 2700/2703 6SM -TSRA BKN050CB
     FM271700 30008KT P6SM BKN100
      TEMPO 2718/2722 3SM TSRA BKN035CB=

USA.gov is the U.S. government's official web portal to all federal, state and local government web resources and services.